createdAt,value
2023-05-03T00:00:23.785Z,98433.28
2023-05-03T00:02:53.922Z,98430.31
2023-05-03T00:05:21.538Z,98435.81
2023-05-03T00:07:49.733Z,98440.16
2023-05-03T00:10:17.389Z,98444.16
2023-05-03T00:12:45.037Z,98439.53
2023-05-03T00:15:12.607Z,98440.34
2023-05-03T00:17:40.170Z,98447.19
2023-05-03T00:20:08.435Z,98441.84
2023-05-03T00:22:36.588Z,98443.34
2023-05-03T00:25:04.786Z,98443.53
2023-05-03T00:27:32.395Z,98447.03
2023-05-03T00:30:00.283Z,98437.47
2023-05-03T00:32:28.411Z,98433.97
2023-05-03T00:34:57.310Z,98428.09
2023-05-03T00:37:25.989Z,98426.25
2023-05-03T00:39:53.810Z,98425.09
2023-05-03T00:42:21.348Z,98426.59
2023-05-03T00:44:48.888Z,98425.78
2023-05-03T00:47:17.157Z,98416.72
2023-05-03T00:49:45.289Z,98410.69
2023-05-03T00:52:13.514Z,98414.84
2023-05-03T00:54:41.326Z,98408.81
2023-05-03T00:57:08.885Z,98407.31
2023-05-03T00:59:37.754Z,98409.47
2023-05-03T01:02:05.751Z,98404.94
2023-05-03T01:04:33.348Z,98409.41
2023-05-03T01:07:23.623Z,98410.22
2023-05-03T01:10:01.985Z,98403.06
2023-05-03T01:12:53.993Z,98408.56
2023-05-03T01:15:44.128Z,98409.25
2023-05-03T01:18:18.506Z,98408.72
2023-05-03T01:20:49.923Z,98402.84
2023-05-03T01:24:04.189Z,98407.38
2023-05-03T01:26:33.285Z,98406.34
2023-05-03T01:29:00.837Z,98408.31
2023-05-03T01:31:53.393Z,98412.31
2023-05-03T01:35:08.840Z,98412.97
2023-05-03T01:37:37.859Z,98409.22
2023-05-03T01:40:08.788Z,98407.88
2023-05-03T01:42:38.572Z,98396.66
2023-05-03T01:45:07.135Z,98398.50
2023-05-03T01:47:35.092Z,98396.13
2023-05-03T01:50:02.970Z,98395.44
2023-05-03T01:52:31.174Z,98389.75
2023-05-03T01:54:59.993Z,98393.56
2023-05-03T01:57:27.582Z,98396.72
2023-05-03T01:59:55.175Z,98400.72
2023-05-03T02:02:22.694Z,98400.81
2023-05-03T02:04:50.650Z,98400.59
2023-05-03T02:07:19.233Z,98403.91
2023-05-03T02:09:46.850Z,98405.75
2023-05-03T02:12:14.319Z,98407.56
2023-05-03T02:14:41.946Z,98401.56
2023-05-03T02:17:10.444Z,98400.84
2023-05-03T02:19:38.624Z,98399.19
2023-05-03T02:22:07.590Z,98393.00
2023-05-03T02:24:36.168Z,98387.47
2023-05-03T02:27:04.734Z,98392.00
2023-05-03T02:29:33.366Z,98394.81
2023-05-03T02:32:05.420Z,98395.84
2023-05-03T02:34:33.471Z,98391.47
2023-05-03T02:37:01.131Z,98385.28
2023-05-03T02:39:30.417Z,98387.00
2023-05-03T02:41:58.583Z,98383.63
2023-05-03T02:44:26.793Z,98378.44
2023-05-03T02:46:54.858Z,98379.91
2023-05-03T02:49:23.172Z,98383.41
2023-05-03T02:51:52.875Z,98385.38
2023-05-03T02:54:20.407Z,98387.38
2023-05-03T02:56:47.958Z,98380.53
2023-05-03T02:59:15.610Z,98386.16
2023-05-03T03:01:43.298Z,98389.84
2023-05-03T03:04:11.261Z,98387.31
2023-05-03T03:06:38.805Z,98386.94
2023-05-03T03:09:06.409Z,98389.06
2023-05-03T03:11:35.984Z,98388.53
2023-05-03T03:14:03.476Z,98390.38
2023-05-03T03:16:31.278Z,98393.38
2023-05-03T03:18:58.958Z,98393.53
2023-05-03T03:21:29.550Z,98395.50
2023-05-03T03:23:57.142Z,98388.63
2023-05-03T03:26:26.148Z,98381.91
2023-05-03T03:28:53.739Z,98389.09
2023-05-03T03:31:23.038Z,98388.41
2023-05-03T03:33:51.082Z,98389.56
2023-05-03T03:36:21.264Z,98395.06
2023-05-03T03:38:49.941Z,98395.19
2023-05-03T03:41:19.291Z,98391.69
2023-05-03T03:43:47.451Z,98400.69
2023-05-03T03:46:19.070Z,98393.59
2023-05-03T03:48:50.987Z,98405.88
2023-05-03T03:51:18.574Z,98403.34
2023-05-03T03:53:48.180Z,98408.69
2023-05-03T03:56:16.516Z,98410.50
2023-05-03T03:58:44.092Z,98408.25
2023-05-03T04:01:12.901Z,98417.25
2023-05-03T04:03:40.762Z,98418.38
2023-05-03T04:06:08.646Z,98414.88
2023-05-03T04:08:37.149Z,98416.19
2023-05-03T04:11:10.380Z,98416.38
2023-05-03T04:13:39.743Z,98416.16
2023-05-03T04:16:08.132Z,98424.97
2023-05-03T04:18:36.666Z,98424.00
2023-05-03T04:21:05.343Z,98422.31
2023-05-03T04:23:32.987Z,98422.91
2023-05-03T04:26:02.618Z,98434.03
2023-05-03T04:28:34.699Z,98433.31
2023-05-03T04:31:02.406Z,98429.81
2023-05-03T04:33:31.641Z,98424.78
2023-05-03T04:36:04.455Z,98430.25
2023-05-03T04:38:32.732Z,98426.78
2023-05-03T04:41:02.742Z,98427.75
2023-05-03T04:43:32.909Z,98430.25
2023-05-03T04:46:00.843Z,98423.69
2023-05-03T04:48:28.413Z,98430.84
2023-05-03T04:50:55.923Z,98432.53
2023-05-03T04:53:24.544Z,98444.00
2023-05-03T04:56:01.288Z,98433.34
2023-05-03T04:58:31.027Z,98432.25
2023-05-03T05:00:59.172Z,98433.75
2023-05-03T05:03:31.481Z,98436.69
2023-05-03T05:06:01.623Z,98432.56
2023-05-03T05:08:30.718Z,98443.50
2023-05-03T05:10:58.949Z,98441.25
2023-05-03T05:13:31.755Z,98437.13
2023-05-03T05:15:59.265Z,98434.84
2023-05-03T05:18:26.821Z,98444.38
2023-05-03T05:20:56.437Z,98443.94
2023-05-03T05:23:26.149Z,98445.47
2023-05-03T05:25:54.047Z,98446.03
2023-05-03T05:28:21.938Z,98444.88
2023-05-03T05:30:49.447Z,98438.88
2023-05-03T05:33:19.077Z,98444.06
2023-05-03T05:35:49.051Z,98450.22
2023-05-03T05:38:18.644Z,98446.44
2023-05-03T05:40:46.154Z,98446.81
2023-05-03T05:43:13.684Z,98456.03
2023-05-03T05:45:44.146Z,98447.75
2023-05-03T05:48:12.208Z,98443.25
2023-05-03T05:50:41.057Z,98449.94
2023-05-03T05:53:11.809Z,98450.34
2023-05-03T05:55:44.661Z,98449.88
2023-05-03T05:58:13.735Z,98452.25
2023-05-03T06:00:48.887Z,98447.28
2023-05-03T06:03:17.065Z,98452.19
2023-05-03T06:05:45.484Z,98449.88
2023-05-03T06:08:13.027Z,98450.41
2023-05-03T06:10:40.821Z,98448.97
2023-05-03T06:13:08.370Z,98449.09
2023-05-03T06:15:36.064Z,98452.78
2023-05-03T06:18:04.604Z,98450.94
2023-05-03T06:20:32.446Z,98449.97
2023-05-03T06:23:00.428Z,98453.69
2023-05-03T06:25:27.952Z,98450.56
2023-05-03T06:27:55.482Z,98443.91
2023-05-03T06:30:28.288Z,98451.31
2023-05-03T06:32:59.714Z,98456.03
2023-05-03T06:35:28.470Z,98456.41
2023-05-03T06:37:55.993Z,98467.28
2023-05-03T06:40:25.827Z,98462.34
2023-05-03T06:42:53.327Z,98465.00
2023-05-03T06:45:35.261Z,98462.72
2023-05-03T06:48:02.978Z,98450.72
2023-05-03T06:50:30.732Z,98465.44
2023-05-03T06:52:58.233Z,98458.94
2023-05-03T06:55:25.788Z,98450.59
2023-05-03T06:57:53.703Z,98445.28
2023-05-03T07:00:23.186Z,98446.34
2023-05-03T07:02:50.806Z,98441.56
2023-05-03T07:05:18.414Z,98437.75
2023-05-03T07:07:46.215Z,98442.81
2023-05-03T07:10:13.743Z,98441.53
2023-05-03T07:12:41.337Z,98436.91
2023-05-03T07:15:10.085Z,98435.59
2023-05-03T07:17:37.635Z,98440.50
2023-05-03T07:20:06.635Z,98430.47
2023-05-03T07:22:36.063Z,98427.78
2023-05-03T07:25:04.879Z,98430.97
2023-05-03T07:27:32.470Z,98430.97
2023-05-03T07:30:00.503Z,98424.78
2023-05-03T07:32:28.122Z,98422.13
2023-05-03T07:34:55.662Z,98429.00
2023-05-03T07:37:23.311Z,98418.94
2023-05-03T07:39:50.963Z,98427.50
2023-05-03T07:42:18.743Z,98423.28
2023-05-03T07:44:46.304Z,98424.94
2023-05-03T07:47:13.790Z,98415.72
2023-05-03T07:49:41.349Z,98419.69
2023-05-03T07:52:09.847Z,98423.88
2023-05-03T07:54:37.399Z,98416.78
2023-05-03T07:57:06.162Z,98420.13
2023-05-03T07:59:33.640Z,98424.06
2023-05-03T08:02:01.854Z,98425.75
2023-05-03T08:04:29.798Z,98424.22
2023-05-03T08:07:04.162Z,98420.00
2023-05-03T08:09:31.650Z,98415.94
2023-05-03T08:11:59.201Z,98415.09
2023-05-03T08:14:27.594Z,98417.09
2023-05-03T08:16:55.424Z,98416.22
2023-05-03T08:19:23.092Z,98423.13
2023-05-03T08:21:54.129Z,98413.84
2023-05-03T08:24:23.044Z,98412.16
2023-05-03T08:26:50.931Z,98419.13
2023-05-03T08:29:18.581Z,98419.91
2023-05-03T08:31:46.462Z,98420.88
2023-05-03T08:34:14.009Z,98418.84
2023-05-03T08:36:41.538Z,98418.88
2023-05-03T08:39:10.290Z,98416.19
2023-05-03T08:41:40.248Z,98414.72
2023-05-03T08:44:11.329Z,98418.22
2023-05-03T08:46:39.009Z,98424.44
2023-05-03T08:49:07.533Z,98430.06
2023-05-03T08:51:40.276Z,98431.97
2023-05-03T08:54:08.596Z,98426.19
2023-05-03T08:56:44.013Z,98434.47
2023-05-03T08:59:11.892Z,98432.44
2023-05-03T09:01:41.624Z,98438.66
2023-05-03T09:04:11.333Z,98433.22
2023-05-03T09:06:39.623Z,98427.31
2023-05-03T09:09:08.410Z,98425.22
2023-05-03T09:11:38.903Z,98426.44
2023-05-03T09:14:16.379Z,98426.91
2023-05-03T09:16:46.523Z,98424.47
2023-05-03T09:19:15.712Z,98431.81
2023-05-03T09:21:49.084Z,98428.41
2023-05-03T09:24:22.016Z,98432.19
2023-05-03T09:26:51.945Z,98427.59
2023-05-03T09:29:35.920Z,98426.66
2023-05-03T09:32:06.246Z,98420.72
2023-05-03T09:34:35.212Z,98422.66
2023-05-03T09:37:02.916Z,98420.81
2023-05-03T09:39:30.494Z,98418.28
2023-05-03T09:41:58.398Z,98410.19
2023-05-03T09:44:44.221Z,98416.22
2023-05-03T09:47:12.352Z,98416.25
2023-05-03T09:49:39.976Z,98411.88
2023-05-03T09:52:08.853Z,98419.94
2023-05-03T09:54:36.909Z,98418.66
2023-05-03T09:57:07.095Z,98407.00
2023-05-03T09:59:37.483Z,98411.25
2023-05-03T10:02:08.291Z,98416.31
2023-05-03T10:04:48.138Z,98403.56
2023-05-03T10:07:20.163Z,98404.28
2023-05-03T10:09:48.799Z,98416.00
2023-05-03T10:12:19.360Z,98409.59
2023-05-03T10:14:49.973Z,98404.06
2023-05-03T10:17:46.164Z,98407.66
2023-05-03T10:20:33.512Z,98405.03
2023-05-03T10:23:13.743Z,98405.47
2023-05-03T10:26:07.270Z,98399.94
2023-05-03T10:28:34.903Z,98398.16
2023-05-03T10:31:03.094Z,98399.16
2023-05-03T10:33:37.238Z,98395.53
2023-05-03T10:36:07.362Z,98398.28
2023-05-03T10:38:36.748Z,98387.25
2023-05-03T10:41:06.649Z,98390.53
2023-05-03T10:43:34.095Z,98389.75
2023-05-03T10:46:03.281Z,98374.47
2023-05-03T10:48:32.545Z,98378.00
2023-05-03T10:51:32.843Z,98379.22
2023-05-03T10:54:00.452Z,98376.38
2023-05-03T10:56:28.002Z,98368.75
2023-05-03T10:58:58.570Z,98374.00
2023-05-03T11:01:27.858Z,98369.53
2023-05-03T11:04:19.676Z,98360.00
2023-05-03T11:06:51.054Z,98362.34
2023-05-03T11:09:18.746Z,98352.44
2023-05-03T11:11:46.350Z,98346.47
2023-05-03T11:14:14.032Z,98344.22
2023-05-03T11:16:47.796Z,98334.72
2023-05-03T11:19:16.192Z,98344.91
2023-05-03T11:21:46.273Z,98339.91
2023-05-03T11:24:15.502Z,98330.53
2023-05-03T11:26:43.083Z,98329.47
2023-05-03T11:29:11.784Z,98331.78
2023-05-03T11:31:42.864Z,98331.22
2023-05-03T11:34:12.356Z,98333.53
2023-05-03T11:36:42.121Z,98329.66
2023-05-03T11:39:11.600Z,98329.69
2023-05-03T11:41:39.265Z,98329.28
2023-05-03T11:44:15.879Z,98327.63
2023-05-03T11:46:46.801Z,98327.84
2023-05-03T11:49:18.764Z,98324.09
2023-05-03T11:51:49.888Z,98328.88
2023-05-03T11:54:26.068Z,98321.84
2023-05-03T11:56:59.533Z,98321.19
2023-05-03T11:59:40.982Z,98319.56
2023-05-03T12:02:12.604Z,98316.63
2023-05-03T12:04:43.203Z,98316.22
2023-05-03T12:07:13.192Z,98308.75
2023-05-03T12:09:43.568Z,98310.38
2023-05-03T12:12:24.086Z,98320.78
2023-05-03T12:15:03.726Z,98323.09
2023-05-03T12:17:44.437Z,98316.84
2023-05-03T12:22:57.949Z,98318.22
2023-05-03T12:25:28.220Z,98312.81
2023-05-03T12:28:18.805Z,98310.88
2023-05-03T12:30:47.790Z,98303.81
2023-05-03T12:33:17.021Z,98299.66
2023-05-03T12:35:47.722Z,98297.94
2023-05-03T12:38:17.459Z,98291.84
2023-05-03T12:40:46.808Z,98291.19
2023-05-03T12:43:14.842Z,98285.88
2023-05-03T12:45:46.484Z,98283.97
2023-05-03T12:48:17.732Z,98287.09
2023-05-03T12:50:45.889Z,98276.59
2023-05-03T12:53:16.913Z,98278.81
2023-05-03T12:55:50.679Z,98279.44
2023-05-03T13:01:15.785Z,98274.41
2023-05-03T13:03:43.425Z,98269.91
2023-05-03T13:06:14.643Z,98270.53
2023-05-03T13:11:13.359Z,98262.06
2023-05-03T13:13:40.993Z,98265.25
2023-05-03T13:16:09.276Z,98263.59
2023-05-03T13:18:37.114Z,98265.44
2023-05-03T13:21:05.012Z,98255.06
2023-05-03T13:23:33.910Z,98255.00
2023-05-03T13:26:01.392Z,98249.63
2023-05-03T13:28:28.965Z,98241.19
2023-05-03T13:30:57.094Z,98231.69
2023-05-03T13:33:25.109Z,98235.75
2023-05-03T13:35:52.658Z,98233.03
2023-05-03T13:38:20.656Z,98232.09
2023-05-03T13:40:48.177Z,98233.34
2023-05-03T13:43:15.789Z,98238.84
2023-05-03T13:45:43.282Z,98236.03
2023-05-03T13:48:18.774Z,98232.16
2023-05-03T13:50:46.902Z,98229.34
2023-05-03T13:53:14.860Z,98232.19
2023-05-03T13:55:42.415Z,98227.53
2023-05-03T13:58:09.915Z,98213.75
2023-05-03T14:00:37.442Z,98218.72
2023-05-03T14:03:06.468Z,98211.47
2023-05-03T14:05:34.784Z,98211.59
2023-05-03T14:08:02.265Z,98204.09
2023-05-03T14:10:29.760Z,98200.03
2023-05-03T14:12:57.929Z,98214.75
2023-05-03T14:15:25.663Z,98210.13
2023-05-03T14:17:54.131Z,98203.84
2023-05-03T14:20:23.777Z,98199.47
2023-05-03T14:22:51.319Z,98202.19
2023-05-03T14:25:19.440Z,98196.00
2023-05-03T14:27:47.232Z,98187.41
2023-05-03T14:30:15.348Z,98178.50
2023-05-03T14:32:42.862Z,98175.19
2023-05-03T14:35:10.537Z,98172.78
2023-05-03T14:37:38.117Z,98168.44
2023-05-03T14:40:07.843Z,98165.09
2023-05-03T14:42:35.668Z,98161.09
2023-05-03T14:45:04.017Z,98159.94
2023-05-03T14:47:32.134Z,98159.25
2023-05-03T14:49:59.912Z,98164.28
2023-05-03T14:52:27.781Z,98161.13
2023-05-03T14:54:55.360Z,98160.63
2023-05-03T14:57:22.865Z,98154.53
2023-05-03T14:59:50.653Z,98153.81
2023-05-03T15:02:19.152Z,98166.72
2023-05-03T15:04:46.833Z,98162.22
2023-05-03T15:07:15.375Z,98164.63
2023-05-03T15:09:44.700Z,98166.69
2023-05-03T15:12:12.177Z,98158.91
2023-05-03T15:14:39.747Z,98153.16
2023-05-03T15:17:07.252Z,98151.81
2023-05-03T15:19:34.783Z,98165.97
2023-05-03T15:22:02.337Z,98164.94
2023-05-03T15:24:29.906Z,98164.50
2023-05-03T15:26:57.380Z,98159.56
2023-05-03T15:29:24.904Z,98155.03
2023-05-03T15:31:52.783Z,98156.84
2023-05-03T15:34:20.482Z,98159.50
2023-05-03T15:36:48.035Z,98160.56
2023-05-03T15:39:15.839Z,98156.84
2023-05-03T15:41:45.426Z,98150.94
2023-05-03T15:44:14.796Z,98143.94
2023-05-03T15:46:43.117Z,98150.59
2023-05-03T15:49:11.945Z,98149.84
2023-05-03T15:51:39.469Z,98144.91
2023-05-03T15:54:07.099Z,98147.69
2023-05-03T15:56:34.675Z,98142.22
2023-05-03T15:59:02.182Z,98140.00
2023-05-03T16:01:29.744Z,98143.22
2023-05-03T16:03:57.290Z,98139.22
2023-05-03T16:06:24.860Z,98139.28
2023-05-03T16:08:52.543Z,98136.59
2023-05-03T16:11:20.122Z,98140.31
2023-05-03T16:13:47.898Z,98137.13
2023-05-03T16:16:15.571Z,98137.94
2023-05-03T16:18:43.102Z,98140.31
2023-05-03T16:21:11.315Z,98132.50
2023-05-03T16:23:38.833Z,98132.41
2023-05-03T16:26:14.299Z,98136.75
2023-05-03T16:28:41.841Z,98137.78
2023-05-03T16:31:09.401Z,98134.22
2023-05-03T16:33:36.929Z,98132.19
2023-05-03T16:36:04.898Z,98123.31
2023-05-03T16:38:32.431Z,98131.22
2023-05-03T16:41:01.636Z,98119.47
2023-05-03T16:43:30.147Z,98112.97
2023-05-03T16:46:01.491Z,98113.41
2023-05-03T16:48:33.170Z,98117.66
2023-05-03T16:51:00.896Z,98116.31
2023-05-03T16:53:28.496Z,98115.63
2023-05-03T16:55:56.508Z,98110.53
2023-05-03T16:58:24.041Z,98106.69
2023-05-03T17:00:51.988Z,98101.75
2023-05-03T17:03:19.622Z,98109.94
2023-05-03T17:05:47.347Z,98104.44
2023-05-03T17:08:15.371Z,98104.69
2023-05-03T17:10:43.216Z,98106.19
2023-05-03T17:13:11.093Z,98112.75
2023-05-03T17:15:39.003Z,98108.16
2023-05-03T17:18:06.789Z,98107.31
2023-05-03T17:20:35.161Z,98106.94
2023-05-03T17:23:02.664Z,98102.38
2023-05-03T17:25:30.429Z,98095.94
2023-05-03T17:27:58.479Z,98102.84
2023-05-03T17:30:26.214Z,98103.97
2023-05-03T17:32:54.209Z,98103.41
2023-05-03T17:35:21.820Z,98101.81
2023-05-03T17:37:49.510Z,98098.59
2023-05-03T17:40:17.094Z,98107.38
2023-05-03T17:42:46.832Z,98110.84
2023-05-03T17:45:14.621Z,98102.34
2023-05-03T17:47:42.196Z,98105.13
2023-05-03T17:50:11.724Z,98110.22
2023-05-03T17:52:40.532Z,98107.09
2023-05-03T17:55:08.636Z,98111.09
2023-05-03T17:57:37.358Z,98108.22
2023-05-03T18:00:06.934Z,98107.19
2023-05-03T18:02:34.758Z,98108.47
2023-05-03T18:05:03.191Z,98112.66
2023-05-03T18:07:30.677Z,98109.81
2023-05-03T18:09:59.545Z,98116.94
2023-05-03T18:12:30.455Z,98115.31
2023-05-03T18:15:00.654Z,98121.19
2023-05-03T18:17:29.667Z,98117.25
2023-05-03T18:19:57.231Z,98111.91
2023-05-03T18:22:27.414Z,98117.94
2023-05-03T18:24:55.286Z,98122.06
2023-05-03T18:27:22.777Z,98118.78
2023-05-03T18:29:50.653Z,98122.16
2023-05-03T18:32:18.166Z,98123.81
2023-05-03T18:34:45.707Z,98127.78
2023-05-03T18:37:13.449Z,98129.50
2023-05-03T18:39:40.967Z,98136.56
2023-05-03T18:42:08.531Z,98134.47
2023-05-03T18:44:36.103Z,98139.09
2023-05-03T18:47:03.693Z,98143.00
2023-05-03T18:49:31.242Z,98146.34
2023-05-03T18:51:58.938Z,98141.78
2023-05-03T18:54:26.494Z,98144.47
2023-05-03T18:56:54.087Z,98149.00
2023-05-03T18:59:21.590Z,98148.19
2023-05-03T19:01:50.163Z,98151.94
2023-05-03T19:04:17.800Z,98148.38
2023-05-03T19:06:45.541Z,98145.69
2023-05-03T19:09:13.603Z,98141.94
2023-05-03T19:11:42.716Z,98138.59
2023-05-03T19:14:10.360Z,98142.09
2023-05-03T19:16:38.010Z,98144.81
2023-05-03T19:19:05.493Z,98145.81
2023-05-03T19:21:34.842Z,98154.69
2023-05-03T19:24:02.524Z,98148.66
2023-05-03T19:26:30.051Z,98148.25
2023-05-03T19:28:57.529Z,98152.78
2023-05-03T19:31:25.080Z,98154.59
2023-05-03T19:33:52.727Z,98158.72
2023-05-03T19:36:20.226Z,98153.09
2023-05-03T19:38:47.756Z,98153.06
2023-05-03T19:41:15.249Z,98157.41
2023-05-03T19:43:42.784Z,98153.81
2023-05-03T19:46:10.721Z,98152.75
2023-05-03T19:48:38.277Z,98159.78
2023-05-03T19:51:05.818Z,98164.53
2023-05-03T19:53:33.806Z,98160.75
2023-05-03T19:56:02.809Z,98157.81
2023-05-03T19:58:31.924Z,98168.19
2023-05-03T20:00:59.643Z,98163.56
2023-05-03T20:03:27.647Z,98165.41
2023-05-03T20:05:55.411Z,98172.41
2023-05-03T20:08:24.129Z,98173.81
2023-05-03T20:10:51.772Z,98171.69
2023-05-03T20:13:19.414Z,98173.28
2023-05-03T20:15:47.055Z,98172.41
2023-05-03T20:18:15.211Z,98180.66
2023-05-03T20:20:43.344Z,98177.72
2023-05-03T20:23:11.845Z,98177.66
2023-05-03T20:25:39.390Z,98180.91
2023-05-03T20:28:06.974Z,98182.97
2023-05-03T20:30:34.736Z,98178.00
2023-05-03T20:33:02.497Z,98179.59
2023-05-03T20:35:30.230Z,98177.50
2023-05-03T20:37:57.782Z,98168.97
2023-05-03T20:40:25.411Z,98166.81
2023-05-03T20:42:52.897Z,98173.63
2023-05-03T20:45:20.416Z,98173.63
2023-05-03T20:47:48.021Z,98174.38
2023-05-03T20:50:15.548Z,98172.66
2023-05-03T20:52:43.173Z,98171.56
2023-05-03T20:55:10.700Z,98167.75
2023-05-03T20:57:42.062Z,98167.69
2023-05-03T21:00:15.700Z,98164.75
2023-05-03T21:02:43.504Z,98170.84
2023-05-03T21:05:11.297Z,98167.25
2023-05-03T21:07:39.110Z,98170.88
2023-05-03T21:10:08.069Z,98172.59
2023-05-03T21:12:35.773Z,98172.34
2023-05-03T21:15:03.558Z,98172.91
2023-05-03T21:17:31.098Z,98171.44
2023-05-03T21:19:58.629Z,98167.28
2023-05-03T21:22:26.796Z,98166.41
2023-05-03T21:24:54.757Z,98171.16
2023-05-03T21:27:22.334Z,98164.31
2023-05-03T21:29:49.846Z,98162.63
2023-05-03T21:32:17.441Z,98161.97
2023-05-03T21:34:44.977Z,98159.50
2023-05-03T21:37:12.478Z,98157.34
2023-05-03T21:39:40.020Z,98160.16
2023-05-03T21:42:07.525Z,98151.63
2023-05-03T21:44:35.105Z,98161.25
2023-05-03T21:47:03.058Z,98154.75
2023-05-03T21:49:30.583Z,98150.13
2023-05-03T21:51:58.152Z,98148.00
2023-05-03T21:54:26.836Z,98143.81
2023-05-03T21:56:54.306Z,98147.53
2023-05-03T21:59:21.843Z,98148.94
2023-05-03T22:01:50.186Z,98140.59
2023-05-03T22:04:17.792Z,98142.28
2023-05-03T22:06:45.612Z,98137.91
2023-05-03T22:09:13.147Z,98138.06
2023-05-03T22:11:41.357Z,98142.63
2023-05-03T22:14:09.248Z,98135.78
2023-05-03T22:16:42.157Z,98145.22
2023-05-03T22:19:10.063Z,98135.47
2023-05-03T22:21:37.555Z,98138.53
2023-05-03T22:24:05.465Z,98131.84
2023-05-03T22:26:33.034Z,98135.56
2023-05-03T22:29:00.985Z,98137.59
2023-05-03T22:31:30.145Z,98133.41
2023-05-03T22:33:57.819Z,98131.94
2023-05-03T22:36:25.427Z,98125.09
2023-05-03T22:39:00.547Z,98130.97
2023-05-03T22:41:28.096Z,98135.03
2023-05-03T22:43:55.616Z,98128.19
2023-05-03T22:46:23.911Z,98132.91
2023-05-03T22:48:51.858Z,98118.66
2023-05-03T22:51:19.354Z,98119.66
2023-05-03T22:53:46.862Z,98125.41
2023-05-03T22:56:14.438Z,98122.91
2023-05-03T22:58:42.092Z,98122.25
2023-05-03T23:01:12.482Z,98115.75
2023-05-03T23:03:41.056Z,98117.78
2023-05-03T23:06:08.814Z,98113.81
2023-05-03T23:08:36.377Z,98114.16
2023-05-03T23:11:04.228Z,98105.44
2023-05-03T23:13:31.758Z,98104.78
2023-05-03T23:15:59.748Z,98103.31
2023-05-03T23:18:27.413Z,98107.81
2023-05-03T23:20:55.246Z,98102.63
2023-05-03T23:23:23.656Z,98101.97
2023-05-03T23:25:52.078Z,98102.19
2023-05-03T23:28:20.849Z,98110.22
2023-05-03T23:30:49.304Z,98110.22
2023-05-03T23:33:17.219Z,98118.06
2023-05-03T23:35:45.054Z,98112.53
2023-05-03T23:38:12.593Z,98114.88
2023-05-03T23:40:40.153Z,98111.00
2023-05-03T23:43:07.708Z,98109.13
2023-05-03T23:45:35.564Z,98106.81
2023-05-03T23:48:03.137Z,98107.19
2023-05-03T23:50:30.731Z,98101.81
2023-05-03T23:52:58.766Z,98101.34
2023-05-03T23:55:26.273Z,98099.84
2023-05-03T23:57:53.785Z,98093.84
